Time;durP1;ratioP1;P1;durP2;ratioP2;P2;SDS_P1;SDS_P2;PMS_P1;PMS_P2;Temp;Humidity;BMP_temperature;BMP_pressure;BME280_temperature;BME280_humidity;BME280_pressure;Samples;Min_cycle;Max_cycle;Signal;HPM_P1;HPM_P2
2023/01/23 00:01:10;;;;;;;15.18;7.00;;;;;;;;;;5098621;28;20024;-79
2023/01/23 00:03:35;;;;;;;12.23;6.97;;;;;;;;;;5095767;28;20026;-80
2023/01/23 00:06:04;;;;;;;14.25;7.63;;;;;;;;;;5100749;28;20483;-79
2023/01/23 00:08:29;;;;;;;13.65;7.07;;;;;;;;;;5098803;28;20031;-79
2023/01/23 00:10:55;;;;;;;14.02;7.07;;;;;;;;;;5099230;28;20170;-79
2023/01/23 00:13:20;;;;;;;14.07;7.28;;;;;;;;;;5101537;28;20035;-79
2023/01/23 00:15:47;;;;;;;12.75;7.50;;;;;;;;;;5099321;28;20027;-80
2023/01/23 00:18:13;;;;;;;11.73;6.70;;;;;;;;;;5105366;28;20027;-79
2023/01/23 00:20:39;;;;;;;12.55;6.97;;;;;;;;;;5099136;28;20502;-79
2023/01/23 00:23:05;;;;;;;12.40;6.95;;;;;;;;;;5102677;28;20445;-80
2023/01/23 00:25:33;;;;;;;14.38;6.28;;;;;;;;;;5110354;28;20027;-79
2023/01/23 00:27:58;;;;;;;12.85;6.55;;;;;;;;;;5097401;28;20031;-80
2023/01/23 00:30:24;;;;;;;12.30;6.50;;;;;;;;;;5095740;28;20033;-79
2023/01/23 00:32:49;;;;;;;12.60;6.43;;;;;;;;;;5105126;28;20038;-79
2023/01/23 00:35:14;;;;;;;12.93;7.35;;;;;;;;;;5102130;28;20015;-79
2023/01/23 00:37:41;;;;;;;11.15;6.28;;;;;;;;;;5099313;28;20027;-80
2023/01/23 00:40:07;;;;;;;15.45;7.68;;;;;;;;;;5103626;28;20027;-79
2023/01/23 00:42:33;;;;;;;13.73;6.70;;;;;;;;;;5098520;28;22037;-80
2023/01/23 00:44:58;;;;;;;12.90;6.70;;;;;;;;;;5097548;28;20567;-79
2023/01/23 00:47:23;;;;;;;12.88;6.82;;;;;;;;;;5095773;28;20089;-79
2023/01/23 00:49:49;;;;;;;14.63;7.43;;;;;;;;;;5101030;28;20026;-79
2023/01/23 00:52:14;;;;;;;11.90;6.18;;;;;;;;;;5102368;28;20020;-79
2023/01/23 00:54:39;;;;;;;11.90;6.82;;;;;;;;;;5109751;28;20460;-79
2023/01/23 00:57:05;;;;;;;10.63;6.32;;;;;;;;;;5095942;28;20069;-80
2023/01/23 00:59:30;;;;;;;14.35;7.13;;;;;;;;;;5105590;28;20036;-79
2023/01/23 01:01:56;;;;;;;13.60;6.78;;;;;;;;;;5102427;28;20233;-79
2023/01/23 01:04:21;;;;;;;12.68;6.70;;;;;;;;;;5101124;28;20127;-79
2023/01/23 01:06:47;;;;;;;13.05;7.00;;;;;;;;;;5098570;28;20491;-79
2023/01/23 01:09:12;;;;;;;12.57;6.97;;;;;;;;;;5104460;28;20027;-79
2023/01/23 01:11:38;;;;;;;13.60;6.68;;;;;;;;;;5104245;27;20078;-79
2023/01/23 01:14:04;;;;;;;12.98;7.15;;;;;;;;;;5104684;28;20476;-80
2023/01/23 01:16:29;;;;;;;11.70;6.65;;;;;;;;;;5104600;28;20020;-79
2023/01/23 01:18:55;;;;;;;12.23;6.88;;;;;;;;;;5098998;28;20360;-79
2023/01/23 01:21:20;;;;;;;12.50;6.82;;;;;;;;;;5098789;28;20077;-79
2023/01/23 01:23:46;;;;;;;11.88;6.78;;;;;;;;;;5100914;28;20413;-79
2023/01/23 01:26:12;;;;;;;11.98;6.30;;;;;;;;;;5098763;28;20023;-79
2023/01/23 01:28:38;;;;;;;16.60;7.13;;;;;;;;;;5095981;28;20120;-80
2023/01/23 01:31:10;;;;;;;12.25;6.38;;;;;;;;;;5093156;28;20020;-79
2023/01/23 01:33:37;;;;;;;14.40;6.80;;;;;;;;;;5101485;28;20067;-80
2023/01/23 01:36:06;;;;;;;13.43;7.28;;;;;;;;;;5093827;28;20487;-80
2023/01/23 01:38:32;;;;;;;12.70;6.65;;;;;;;;;;5092708;28;20488;-80
2023/01/23 01:40:57;;;;;;;12.90;6.90;;;;;;;;;;5099608;28;20026;-79
2023/01/23 01:43:25;;;;;;;11.98;6.95;;;;;;;;;;5100446;28;20039;-79
2023/01/23 01:46:16;;;;;;;14.10;6.75;;;;;;;;;;5097449;28;20052;-80
2023/01/23 01:48:56;;;;;;;12.52;6.20;;;;;;;;;;5092685;28;20507;-80
2023/01/23 01:51:30;;;;;;;11.38;6.30;;;;;;;;;;5096675;28;20544;-79
2023/01/23 01:54:05;;;;;;;12.55;6.53;;;;;;;;;;5103071;28;20050;-80
2023/01/23 01:56:45;;;;;;;13.40;6.70;;;;;;;;;;5098974;28;20023;-80
2023/01/23 01:59:11;;;;;;;10.35;5.80;;;;;;;;;;5096167;28;20241;-80
2023/01/23 02:01:39;;;;;;;12.27;6.18;;;;;;;;;;5096519;28;20112;-80
2023/01/23 02:04:05;;;;;;;13.18;6.28;;;;;;;;;;5096891;28;20019;-80
2023/01/23 02:06:31;;;;;;;14.23;6.15;;;;;;;;;;5093616;28;20111;-79
2023/01/23 02:09:00;;;;;;;12.23;6.43;;;;;;;;;;5098748;28;20103;-80
2023/01/23 02:11:27;;;;;;;14.02;7.68;;;;;;;;;;5100493;28;20133;-80
2023/01/23 02:13:55;;;;;;;11.18;6.45;;;;;;;;;;5097390;28;20023;-80
2023/01/23 02:16:28;;;;;;;10.35;5.85;;;;;;;;;;5096913;28;20036;-80
2023/01/23 02:18:58;;;;;;;12.45;6.45;;;;;;;;;;5098796;28;20027;-79
2023/01/23 02:21:24;;;;;;;15.23;6.97;;;;;;;;;;5094098;28;20035;-80
2023/01/23 02:24:04;;;;;;;13.02;7.38;;;;;;;;;;5107453;28;20035;-80
2023/01/23 02:26:50;;;;;;;14.60;6.70;;;;;;;;;;5096583;28;20634;-80
2023/01/23 02:29:17;;;;;;;12.48;6.53;;;;;;;;;;5097928;28;20036;-80
2023/01/23 02:31:44;;;;;;;14.45;7.45;;;;;;;;;;5093693;28;20542;-80
2023/01/23 02:34:11;;;;;;;13.73;7.53;;;;;;;;;;5098561;28;20024;-80
2023/01/23 02:36:37;;;;;;;14.43;7.03;;;;;;;;;;5093154;28;20078;-80
2023/01/23 02:39:13;;;;;;;14.32;7.05;;;;;;;;;;5099309;28;20028;-80
2023/01/23 02:41:41;;;;;;;11.35;6.40;;;;;;;;;;5115164;27;20463;-80
2023/01/23 02:44:28;;;;;;;15.90;7.20;;;;;;;;;;5099351;28;20023;-80
2023/01/23 02:46:55;;;;;;;10.93;6.30;;;;;;;;;;5102651;28;20483;-80
2023/01/23 02:49:21;;;;;;;13.18;7.07;;;;;;;;;;5097596;28;20446;-80
2023/01/23 02:51:48;;;;;;;17.40;6.88;;;;;;;;;;5098649;28;20107;-80
2023/01/23 02:54:14;;;;;;;13.63;7.05;;;;;;;;;;5098237;28;20027;-80
2023/01/23 02:56:41;;;;;;;14.70;6.82;;;;;;;;;;5095825;28;20035;-80
2023/01/23 03:01:51;;;;;;;13.95;6.22;;;;;;;;;;5095587;28;20035;-80
2023/01/23 03:04:16;;;;;;;13.75;7.15;;;;;;;;;;5097913;28;20053;-80
2023/01/23 03:06:42;;;;;;;12.95;6.78;;;;;;;;;;5091418;28;20051;-80
2023/01/23 03:09:10;;;;;;;14.50;6.47;;;;;;;;;;5101496;28;20034;-80
2023/01/23 03:11:40;;;;;;;15.18;6.88;;;;;;;;;;5104092;27;20483;-80
2023/01/23 03:14:12;;;;;;;13.00;6.57;;;;;;;;;;5094884;28;20027;-80
2023/01/23 03:16:37;;;;;;;17.58;7.40;;;;;;;;;;5097159;28;20085;-80
2023/01/23 03:19:06;;;;;;;14.93;7.80;;;;;;;;;;5093968;28;20032;-80
2023/01/23 03:21:32;;;;;;;13.30;7.30;;;;;;;;;;5098766;28;20036;-80
2023/01/23 03:23:58;;;;;;;13.40;7.25;;;;;;;;;;5097184;28;20046;-80
2023/01/23 03:26:23;;;;;;;15.95;7.05;;;;;;;;;;5103361;28;20038;-79
2023/01/23 03:31:33;;;;;;;12.48;6.65;;;;;;;;;;5097596;28;20034;-80
2023/01/23 03:33:59;;;;;;;15.48;7.43;;;;;;;;;;5097987;28;20035;-80
2023/01/23 03:36:24;;;;;;;14.00;7.38;;;;;;;;;;5103347;28;20028;-80
2023/01/23 03:41:35;;;;;;;13.32;6.22;;;;;;;;;;5094959;28;20595;-80
2023/01/23 03:44:00;;;;;;;15.38;7.13;;;;;;;;;;5095958;28;20047;-80
2023/01/23 03:46:26;;;;;;;13.43;6.80;;;;;;;;;;5092408;28;20067;-80
2023/01/23 03:48:51;;;;;;;13.55;6.85;;;;;;;;;;5097360;28;20123;-80
2023/01/23 03:51:16;;;;;;;13.63;6.70;;;;;;;;;;5098910;28;20023;-80
2023/01/23 03:53:42;;;;;;;16.73;6.80;;;;;;;;;;5091557;28;20380;-80
2023/01/23 03:56:07;;;;;;;14.70;7.35;;;;;;;;;;5092162;28;20081;-80
2023/01/23 03:58:33;;;;;;;12.85;6.93;;;;;;;;;;5091593;28;20028;-80
2023/01/23 04:01:01;;;;;;;13.55;7.07;;;;;;;;;;5093545;28;20024;-80
2023/01/23 04:03:27;;;;;;;13.52;7.13;;;;;;;;;;5093145;28;20023;-80
2023/01/23 04:05:57;;;;;;;12.82;7.00;;;;;;;;;;5101116;28;20400;-80
2023/01/23 04:08:23;;;;;;;17.80;6.95;;;;;;;;;;5096389;28;20028;-80
2023/01/23 04:10:48;;;;;;;11.70;6.70;;;;;;;;;;5097789;28;20020;-80
2023/01/23 04:13:14;;;;;;;16.48;8.13;;;;;;;;;;5099739;28;20377;-80
2023/01/23 04:15:39;;;;;;;15.02;7.65;;;;;;;;;;5093801;28;20016;-80
2023/01/23 04:18:04;;;;;;;16.27;7.55;;;;;;;;;;5094592;28;20430;-80
2023/01/23 04:20:30;;;;;;;13.00;6.95;;;;;;;;;;5093739;28;20028;-80
2023/01/23 04:22:55;;;;;;;14.95;7.10;;;;;;;;;;5090214;28;20034;-80
2023/01/23 04:25:21;;;;;;;15.45;7.28;;;;;;;;;;5097350;28;20030;-80
2023/01/23 04:27:46;;;;;;;14.05;6.63;;;;;;;;;;5100108;28;20036;-80
2023/01/23 04:30:12;;;;;;;15.82;7.28;;;;;;;;;;5098951;28;20383;-80
2023/01/23 04:32:37;;;;;;;16.63;6.55;;;;;;;;;;5102656;28;20028;-79
2023/01/23 04:35:03;;;;;;;14.80;7.18;;;;;;;;;;5095765;28;20065;-79
2023/01/23 04:37:28;;;;;;;14.50;7.07;;;;;;;;;;5093331;28;20044;-80
2023/01/23 04:39:54;;;;;;;14.80;7.10;;;;;;;;;;5095966;28;20483;-80
2023/01/23 04:42:19;;;;;;;13.43;7.43;;;;;;;;;;5094425;28;20059;-80
2023/01/23 04:44:45;;;;;;;13.05;6.82;;;;;;;;;;5097741;28;20031;-80
2023/01/23 04:47:10;;;;;;;13.52;7.03;;;;;;;;;;5093153;28;20026;-80
2023/01/23 04:49:36;;;;;;;15.88;7.68;;;;;;;;;;5092613;28;20028;-80
2023/01/23 04:52:01;;;;;;;14.05;7.13;;;;;;;;;;5097083;28;20046;-80
2023/01/23 04:54:27;;;;;;;12.57;7.25;;;;;;;;;;5092771;28;20028;-80
2023/01/23 04:56:52;;;;;;;13.85;7.18;;;;;;;;;;5103623;28;20053;-80
2023/01/23 04:59:18;;;;;;;15.45;7.40;;;;;;;;;;5102203;28;20046;-80
2023/01/23 05:01:44;;;;;;;14.73;7.05;;;;;;;;;;5093563;28;20024;-80
2023/01/23 05:04:09;;;;;;;15.98;7.55;;;;;;;;;;5105829;28;20028;-80
2023/01/23 05:06:34;;;;;;;13.38;7.05;;;;;;;;;;5096846;28;20426;-80
2023/01/23 05:09:00;;;;;;;13.40;6.93;;;;;;;;;;5098954;28;20039;-80
2023/01/23 05:11:25;;;;;;;16.55;8.10;;;;;;;;;;5099622;27;20024;-80
2023/01/23 05:13:51;;;;;;;16.77;8.20;;;;;;;;;;5099299;28;20031;-80
2023/01/23 05:16:16;;;;;;;14.95;7.80;;;;;;;;;;5099458;28;20369;-80
2023/01/23 05:18:43;;;;;;;16.27;8.02;;;;;;;;;;5096096;28;20035;-80
2023/01/23 05:21:08;;;;;;;13.95;7.40;;;;;;;;;;5091712;28;20118;-80
2023/01/23 05:23:33;;;;;;;17.20;7.97;;;;;;;;;;5101516;28;20023;-80
2023/01/23 05:25:59;;;;;;;20.20;8.23;;;;;;;;;;5104682;28;20388;-80
2023/01/23 05:28:24;;;;;;;15.40;8.00;;;;;;;;;;5096386;28;20032;-80
2023/01/23 05:30:49;;;;;;;16.58;8.20;;;;;;;;;;5101933;28;20030;-80
2023/01/23 05:33:15;;;;;;;15.80;7.38;;;;;;;;;;5099387;28;20024;-80
2023/01/23 05:35:40;;;;;;;15.38;7.78;;;;;;;;;;5105557;28;20055;-80
2023/01/23 05:38:06;;;;;;;16.75;8.00;;;;;;;;;;5098954;28;20031;-80
2023/01/23 05:40:31;;;;;;;15.80;7.85;;;;;;;;;;5099106;28;20030;-80
2023/01/23 05:42:57;;;;;;;14.80;7.78;;;;;;;;;;5096789;28;20020;-80
2023/01/23 05:45:22;;;;;;;13.82;7.97;;;;;;;;;;5094791;28;20543;-80
2023/01/23 05:47:47;;;;;;;13.75;7.20;;;;;;;;;;5097104;28;20047;-80
2023/01/23 05:50:15;;;;;;;16.02;8.18;;;;;;;;;;5105444;28;20502;-80
2023/01/23 05:52:41;;;;;;;17.02;8.05;;;;;;;;;;5096247;28;20028;-80
2023/01/23 05:55:06;;;;;;;15.20;8.23;;;;;;;;;;5091862;28;20059;-80
2023/01/23 05:57:33;;;;;;;15.73;7.95;;;;;;;;;;5094777;28;20085;-80
2023/01/23 05:59:58;;;;;;;15.93;7.80;;;;;;;;;;5095451;28;20035;-80
2023/01/23 06:02:24;;;;;;;16.95;7.80;;;;;;;;;;5089746;27;20495;-80
2023/01/23 06:04:49;;;;;;;15.32;8.13;;;;;;;;;;5092774;27;20066;-80
2023/01/23 06:07:16;;;;;;;16.27;7.55;;;;;;;;;;5087543;28;20070;-80
2023/01/23 06:09:42;;;;;;;15.93;7.78;;;;;;;;;;5092533;28;20738;-80
2023/01/23 06:12:08;;;;;;;14.45;8.00;;;;;;;;;;5094334;28;20028;-80
2023/01/23 06:14:34;;;;;;;18.98;8.20;;;;;;;;;;5096595;28;20485;-80
2023/01/23 06:17:00;;;;;;;16.98;8.05;;;;;;;;;;5090935;28;20020;-80
2023/01/23 06:19:25;;;;;;;14.57;7.57;;;;;;;;;;5093264;28;20087;-80
2023/01/23 06:21:51;;;;;;;17.88;8.68;;;;;;;;;;5093318;28;20110;-80
2023/01/23 06:24:16;;;;;;;18.60;8.25;;;;;;;;;;5089197;28;20024;-81
2023/01/23 06:26:42;;;;;;;15.05;8.02;;;;;;;;;;5093161;28;20028;-80
2023/01/23 06:29:07;;;;;;;13.93;7.43;;;;;;;;;;5092585;28;20043;-81
2023/01/23 06:31:33;;;;;;;13.48;6.82;;;;;;;;;;5093868;28;20023;-80
2023/01/23 06:33:58;;;;;;;17.25;8.07;;;;;;;;;;5090192;28;20109;-81
2023/01/23 06:36:24;;;;;;;16.48;8.43;;;;;;;;;;5092887;28;20044;-80
2023/01/23 06:38:50;;;;;;;16.90;9.15;;;;;;;;;;5093127;28;20035;-81
2023/01/23 06:41:15;;;;;;;18.05;8.82;;;;;;;;;;5092445;27;20027;-80
2023/01/23 06:43:41;;;;;;;12.73;7.40;;;;;;;;;;5090787;28;20117;-81
2023/01/23 06:46:08;;;;;;;12.65;7.53;;;;;;;;;;5103776;28;20045;-81
2023/01/23 06:48:34;;;;;;;16.65;7.90;;;;;;;;;;5098597;28;20478;-81
2023/01/23 06:51:00;;;;;;;14.48;7.53;;;;;;;;;;5096767;28;20031;-80
2023/01/23 06:53:26;;;;;;;17.13;8.07;;;;;;;;;;5095315;28;20117;-81
2023/01/23 06:55:51;;;;;;;17.17;8.30;;;;;;;;;;5087297;28;20833;-81
2023/01/23 06:58:17;;;;;;;16.25;8.30;;;;;;;;;;5101819;28;20035;-80
2023/01/23 07:00:43;;;;;;;15.50;7.47;;;;;;;;;;5099982;28;20034;-80
2023/01/23 07:03:12;;;;;;;14.00;7.88;;;;;;;;;;5098999;28;20077;-81
2023/01/23 07:05:39;;;;;;;13.23;7.35;;;;;;;;;;5095278;28;20763;-80
2023/01/23 07:08:06;;;;;;;15.10;8.27;;;;;;;;;;5095628;28;20490;-80
2023/01/23 07:10:31;;;;;;;14.85;7.82;;;;;;;;;;5095500;27;20118;-81
2023/01/23 07:12:57;;;;;;;17.63;8.32;;;;;;;;;;5099427;28;20470;-81
2023/01/23 07:15:22;;;;;;;17.00;8.50;;;;;;;;;;5098324;28;20026;-81
2023/01/23 07:17:48;;;;;;;14.65;7.68;;;;;;;;;;5096050;28;20035;-80
2023/01/23 07:20:14;;;;;;;16.10;8.27;;;;;;;;;;5099172;28;20110;-80
2023/01/23 07:22:40;;;;;;;13.90;7.93;;;;;;;;;;5094283;28;20419;-81
2023/01/23 07:25:06;;;;;;;13.27;7.68;;;;;;;;;;5097200;28;20023;-80
2023/01/23 07:27:32;;;;;;;13.05;7.15;;;;;;;;;;5092814;28;20043;-81
2023/01/23 07:29:57;;;;;;;14.55;7.57;;;;;;;;;;5100452;28;20082;-80
2023/01/23 07:32:23;;;;;;;15.30;7.80;;;;;;;;;;5099261;28;20032;-81
2023/01/23 07:34:48;;;;;;;15.15;8.05;;;;;;;;;;5093645;28;21146;-80
2023/01/23 07:37:13;;;;;;;12.75;7.22;;;;;;;;;;5094570;28;20036;-81
2023/01/23 07:39:39;;;;;;;14.55;7.57;;;;;;;;;;5086229;28;20563;-81
2023/01/23 07:42:04;;;;;;;14.65;7.47;;;;;;;;;;5092287;28;20106;-81
2023/01/23 07:44:30;;;;;;;17.63;7.97;;;;;;;;;;5099273;28;20113;-81
2023/01/23 07:46:55;;;;;;;17.15;8.55;;;;;;;;;;5096042;28;20043;-81
2023/01/23 07:49:21;;;;;;;15.50;7.93;;;;;;;;;;5102534;28;20035;-81
2023/01/23 07:51:46;;;;;;;16.58;8.63;;;;;;;;;;5100669;28;20024;-81
2023/01/23 07:54:12;;;;;;;14.70;8.57;;;;;;;;;;5095418;28;20031;-80
2023/01/23 07:56:37;;;;;;;15.50;8.30;;;;;;;;;;5101525;28;20016;-80
2023/01/23 07:59:03;;;;;;;17.35;8.73;;;;;;;;;;5103647;28;20468;-81
2023/01/23 08:01:28;;;;;;;14.77;8.45;;;;;;;;;;5102564;28;20471;-80
2023/01/23 08:03:53;;;;;;;15.73;8.02;;;;;;;;;;5108062;28;20299;-81
2023/01/23 08:06:19;;;;;;;14.85;8.10;;;;;;;;;;5099664;28;20023;-80
2023/01/23 08:08:47;;;;;;;12.23;6.90;;;;;;;;;;5099602;28;20494;-81
2023/01/23 08:11:13;;;;;;;15.88;8.00;;;;;;;;;;5102299;28;20472;-81
2023/01/23 08:13:38;;;;;;;15.32;7.90;;;;;;;;;;5096602;28;20051;-81
2023/01/23 08:16:04;;;;;;;15.73;8.63;;;;;;;;;;5097360;28;20035;-81
2023/01/23 08:18:31;;;;;;;14.70;7.68;;;;;;;;;;5100057;28;20036;-81
2023/01/23 08:20:58;;;;;;;14.57;8.10;;;;;;;;;;5094784;28;20468;-81
2023/01/23 08:23:29;;;;;;;14.50;7.68;;;;;;;;;;5103437;28;20494;-81
2023/01/23 08:25:56;;;;;;;16.55;8.05;;;;;;;;;;5091596;28;20459;-81
2023/01/23 08:28:22;;;;;;;14.35;8.38;;;;;;;;;;5100297;28;20028;-81
2023/01/23 08:30:48;;;;;;;14.68;8.30;;;;;;;;;;5098746;28;20077;-81
2023/01/23 08:33:14;;;;;;;17.00;8.38;;;;;;;;;;5099350;28;20043;-81
2023/01/23 08:35:57;;;;;;;16.88;8.05;;;;;;;;;;5096382;28;20094;-81
2023/01/23 08:38:23;;;;;;;13.23;7.80;;;;;;;;;;5109621;28;20046;-80
2023/01/23 08:40:50;;;;;;;16.23;8.30;;;;;;;;;;5098471;28;20039;-81
2023/01/23 08:43:16;;;;;;;18.98;8.93;;;;;;;;;;5100584;28;20030;-81
2023/01/23 08:45:48;;;;;;;14.45;8.35;;;;;;;;;;5104044;28;20031;-81
2023/01/23 08:48:14;;;;;;;15.57;8.02;;;;;;;;;;5101052;28;20099;-81
2023/01/23 08:50:40;;;;;;;17.00;8.63;;;;;;;;;;5097357;28;20020;-80
2023/01/23 08:53:05;;;;;;;14.02;8.32;;;;;;;;;;5108053;28;20364;-81
2023/01/23 08:55:31;;;;;;;16.30;8.55;;;;;;;;;;5104357;28;20047;-80
2023/01/23 08:57:58;;;;;;;14.77;8.57;;;;;;;;;;5104032;28;20114;-81
2023/01/23 09:00:24;;;;;;;14.90;9.18;;;;;;;;;;5100093;28;20497;-81
2023/01/23 09:02:50;;;;;;;16.52;8.90;;;;;;;;;;5101300;28;20059;-81
2023/01/23 09:05:16;;;;;;;19.80;10.20;;;;;;;;;;5105689;28;20020;-81
2023/01/23 09:07:41;;;;;;;17.13;8.90;;;;;;;;;;5097834;28;20036;-81
2023/01/23 09:10:07;;;;;;;16.95;9.07;;;;;;;;;;5101173;28;20432;-81
2023/01/23 09:12:33;;;;;;;19.27;9.38;;;;;;;;;;5101998;27;20028;-81
2023/01/23 09:14:58;;;;;;;15.82;8.82;;;;;;;;;;5100703;28;20049;-81
2023/01/23 09:17:24;;;;;;;19.48;9.65;;;;;;;;;;5107653;28;20039;-81
2023/01/23 09:19:50;;;;;;;17.65;9.38;;;;;;;;;;5096684;28;20031;-81
2023/01/23 09:22:15;;;;;;;17.42;9.20;;;;;;;;;;5103565;28;20019;-81
2023/01/23 09:24:41;;;;;;;20.23;8.75;;;;;;;;;;5094003;28;20130;-81
2023/01/23 09:27:06;;;;;;;17.30;9.05;;;;;;;;;;5099944;28;20441;-81
2023/01/23 09:29:32;;;;;;;19.38;9.60;;;;;;;;;;5094176;28;20476;-81
2023/01/23 09:31:57;;;;;;;19.77;9.23;;;;;;;;;;5096684;28;20031;-81
2023/01/23 09:34:23;;;;;;;16.40;8.38;;;;;;;;;;5113285;28;20019;-81
2023/01/23 09:36:48;;;;;;;20.38;10.00;;;;;;;;;;5091611;28;20043;-81
2023/01/23 09:39:14;;;;;;;13.45;8.35;;;;;;;;;;5094671;28;20031;-81
2023/01/23 09:41:42;;;;;;;17.20;8.93;;;;;;;;;;5099441;28;20016;-81
2023/01/23 09:44:19;;;;;;;14.55;8.45;;;;;;;;;;5101367;28;20031;-81
2023/01/23 09:47:13;;;;;;;18.23;8.77;;;;;;;;;;5097737;28;20019;-81
2023/01/23 09:49:48;;;;;;;16.67;8.05;;;;;;;;;;5101367;28;20036;-81
2023/01/23 09:52:20;;;;;;;16.63;8.52;;;;;;;;;;5098065;28;20017;-81
2023/01/23 09:54:48;;;;;;;18.17;8.25;;;;;;;;;;5101274;28;20023;-81
2023/01/23 09:57:54;;;;;;;16.73;8.30;;;;;;;;;;5096459;28;20075;-81
2023/01/23 10:00:27;;;;;;;14.10;7.63;;;;;;;;;;5088137;28;20040;-81
2023/01/23 10:02:54;;;;;;;19.25;8.45;;;;;;;;;;5097948;28;20540;-81
2023/01/23 10:05:38;;;;;;;15.80;8.38;;;;;;;;;;5095369;28;20035;-81
2023/01/23 10:08:20;;;;;;;16.95;8.68;;;;;;;;;;5099715;28;20024;-81
2023/01/23 10:11:00;;;;;;;14.38;7.88;;;;;;;;;;5097478;27;20028;-81
2023/01/23 10:13:47;;;;;;;16.40;8.65;;;;;;;;;;5101106;28;20539;-81
2023/01/23 10:16:25;;;;;;;16.98;7.72;;;;;;;;;;5101192;28;20110;-81
2023/01/23 10:19:22;;;;;;;14.90;7.78;;;;;;;;;;5104120;28;20141;-81
2023/01/23 10:21:58;;;;;;;15.15;8.18;;;;;;;;;;5101263;28;20062;-81
2023/01/23 10:24:47;;;;;;;15.75;7.95;;;;;;;;;;5101116;28;20085;-81
2023/01/23 10:27:37;;;;;;;19.67;8.85;;;;;;;;;;5106250;28;20020;-81
2023/01/23 10:30:27;;;;;;;18.40;8.38;;;;;;;;;;5095229;28;20506;-81
2023/01/23 10:33:19;;;;;;;19.52;8.55;;;;;;;;;;5084434;28;20047;-80
2023/01/23 10:35:52;;;;;;;17.40;8.50;;;;;;;;;;5099002;28;20034;-81
2023/01/23 10:38:26;;;;;;;16.30;7.60;;;;;;;;;;5098816;28;20061;-81
2023/01/23 10:43:36;;;;;;;14.05;7.57;;;;;;;;;;5106322;28;20096;-80
2023/01/23 10:46:12;;;;;;;14.02;8.10;;;;;;;;;;5104246;28;20388;-81
2023/01/23 10:48:46;;;;;;;16.33;7.72;;;;;;;;;;5099756;28;20023;-80
2023/01/23 10:51:25;;;;;;;13.93;7.70;;;;;;;;;;5101212;28;20380;-81
2023/01/23 10:54:23;;;;;;;17.27;8.52;;;;;;;;;;5103109;28;20054;-81
2023/01/23 10:57:21;;;;;;;15.05;7.85;;;;;;;;;;5102610;28;20070;-80
2023/01/23 11:00:02;;;;;;;15.35;8.32;;;;;;;;;;5087248;28;20038;-81
2023/01/23 11:02:31;;;;;;;16.33;7.65;;;;;;;;;;5104342;28;20058;-81
2023/01/23 11:04:57;;;;;;;18.25;8.45;;;;;;;;;;5096601;28;20028;-80
2023/01/23 11:07:25;;;;;;;15.95;8.82;;;;;;;;;;5101068;28;20106;-80
2023/01/23 11:09:56;;;;;;;17.48;8.77;;;;;;;;;;5103331;28;20525;-81
2023/01/23 11:12:30;;;;;;;19.15;8.50;;;;;;;;;;5105412;27;20039;-80
2023/01/23 11:15:25;;;;;;;17.77;9.18;;;;;;;;;;5096527;28;20115;-81
2023/01/23 11:17:52;;;;;;;17.20;8.43;;;;;;;;;;5098318;28;20587;-81
2023/01/23 11:20:29;;;;;;;17.90;8.38;;;;;;;;;;5094357;28;20020;-80
2023/01/23 11:23:07;;;;;;;17.65;9.23;;;;;;;;;;5099148;28;20399;-81
2023/01/23 11:25:47;;;;;;;15.90;8.70;;;;;;;;;;5093800;28;20113;-81
2023/01/23 11:28:29;;;;;;;15.20;8.38;;;;;;;;;;5101638;28;20028;-81
2023/01/23 11:31:04;;;;;;;23.73;9.07;;;;;;;;;;5103223;28;20490;-81
2023/01/23 11:33:36;;;;;;;18.50;9.00;;;;;;;;;;5093813;28;20502;-81
2023/01/23 11:36:45;;;;;;;19.23;8.77;;;;;;;;;;5103346;28;20015;-81
2023/01/23 11:39:35;;;;;;;17.02;8.52;;;;;;;;;;5103542;28;20032;-81
2023/01/23 11:42:01;;;;;;;16.85;8.43;;;;;;;;;;5097370;28;20035;-81
2023/01/23 11:44:28;;;;;;;17.90;8.73;;;;;;;;;;5099063;28;20386;-81
2023/01/23 11:47:12;;;;;;;16.95;8.52;;;;;;;;;;5092210;28;20058;-81
2023/01/23 11:49:44;;;;;;;18.50;9.07;;;;;;;;;;5100012;28;20020;-81
2023/01/23 11:52:12;;;;;;;16.85;8.30;;;;;;;;;;5093997;28;20439;-81
2023/01/23 11:55:02;;;;;;;19.60;9.18;;;;;;;;;;5093442;28;20429;-81
2023/01/23 11:58:00;;;;;;;14.80;7.70;;;;;;;;;;5099433;28;20024;-81
2023/01/23 12:00:40;;;;;;;17.45;8.35;;;;;;;;;;5097472;28;20142;-81
2023/01/23 12:03:26;;;;;;;19.05;9.05;;;;;;;;;;5094837;28;20027;-81
2023/01/23 12:06:26;;;;;;;17.52;8.18;;;;;;;;;;5108092;28;20486;-81
2023/01/23 12:08:52;;;;;;;19.17;8.57;;;;;;;;;;5100963;28;20032;-81
2023/01/23 12:11:21;;;;;;;17.52;9.10;;;;;;;;;;5111999;27;20023;-81
2023/01/23 12:13:57;;;;;;;18.13;9.15;;;;;;;;;;5108480;28;20559;-80
2023/01/23 12:16:44;;;;;;;16.83;8.65;;;;;;;;;;5102302;28;20033;-80
2023/01/23 12:19:21;;;;;;;20.27;8.93;;;;;;;;;;5102412;28;20019;-81
2023/01/23 12:22:13;;;;;;;20.27;9.18;;;;;;;;;;5099691;28;20023;-80
2023/01/23 12:25:02;;;;;;;16.65;8.27;;;;;;;;;;5097941;28;20532;-81
2023/01/23 12:27:44;;;;;;;17.58;8.57;;;;;;;;;;5104764;28;20092;-80
2023/01/23 12:30:15;;;;;;;15.68;8.52;;;;;;;;;;5105579;28;20016;-80
2023/01/23 12:33:14;;;;;;;16.15;8.90;;;;;;;;;;5108851;28;20086;-81
2023/01/23 12:36:17;;;;;;;17.20;8.65;;;;;;;;;;5108042;28;20030;-80
2023/01/23 12:38:56;;;;;;;14.10;8.23;;;;;;;;;;5106216;28;20493;-80
2023/01/23 12:41:36;;;;;;;20.02;9.02;;;;;;;;;;5104698;28;20027;-80
2023/01/23 12:44:07;;;;;;;15.55;8.20;;;;;;;;;;5106766;28;20038;-81
2023/01/23 12:46:47;;;;;;;18.48;8.20;;;;;;;;;;5105172;28;20547;-80
2023/01/23 12:49:22;;;;;;;17.58;8.00;;;;;;;;;;5096821;28;20027;-81
2023/01/23 12:52:03;;;;;;;15.20;8.05;;;;;;;;;;5099061;28;20100;-80
2023/01/23 12:54:38;;;;;;;15.50;8.15;;;;;;;;;;5098269;28;20020;-80
2023/01/23 12:57:07;;;;;;;16.98;8.73;;;;;;;;;;5097419;28;20383;-81
2023/01/23 12:59:50;;;;;;;16.75;8.45;;;;;;;;;;5109073;28;20032;-81
2023/01/23 13:02:33;;;;;;;;;;;;;;;;;;5094951;28;20022;-81
2023/01/23 13:05:19;;;;;;;13.38;7.38;;;;;;;;;;5103315;28;20310;-81
2023/01/23 13:08:02;;;;;;;16.13;7.78;;;;;;;;;;5105932;28;20391;-81
2023/01/23 13:13:26;;;;;;;13.38;7.55;;;;;;;;;;5105360;28;20444;-81
2023/01/23 13:16:28;;;;;;;16.55;8.65;;;;;;;;;;5099034;28;20024;-81
2023/01/23 13:22:03;;;;;;;18.58;8.35;;;;;;;;;;5097258;28;20039;-81
2023/01/23 13:25:09;;;;;;;17.75;8.25;;;;;;;;;;5095229;28;20051;-80
2023/01/23 13:27:51;;;;;;;16.70;8.32;;;;;;;;;;5095469;28;20066;-80
2023/01/23 13:30:25;;;;;;;16.88;8.45;;;;;;;;;;5094140;28;20022;-80
2023/01/23 13:33:04;;;;;;;15.43;8.50;;;;;;;;;;5101375;28;20032;-81
2023/01/23 13:35:39;;;;;;;16.63;8.32;;;;;;;;;;5097315;28;20023;-80
2023/01/23 13:38:39;;;;;;;15.30;8.68;;;;;;;;;;5099045;28;20103;-80
2023/01/23 13:41:04;;;;;;;16.25;7.57;;;;;;;;;;5090151;28;20046;-80
2023/01/23 13:43:48;;;;;;;16.90;8.32;;;;;;;;;;5094900;28;20032;-80
2023/01/23 13:46:49;;;;;;;17.13;8.88;;;;;;;;;;5098908;28;20053;-81
2023/01/23 13:49:54;;;;;;;17.08;8.48;;;;;;;;;;5043050;28;20657;-81
2023/01/23 13:58:19;;;;;;;16.67;8.73;;;;;;;;;;5099718;28;20114;-80
2023/01/23 14:05:11;;;;;;;20.58;8.93;;;;;;;;;;5101841;27;20028;-81
2023/01/23 14:06:37;;;;;;;14.05;7.97;;;;;;;;;;5095011;28;20086;-81
2023/01/23 14:09:17;;;;;;;17.65;8.10;;;;;;;;;;5092494;28;20023;-81
2023/01/23 14:11:44;;;;;;;20.20;8.40;;;;;;;;;;5097320;27;20038;-80
2023/01/23 14:16:55;;;;;;;17.40;8.90;;;;;;;;;;5095307;28;20521;-81
2023/01/23 14:19:28;;;;;;;17.30;8.82;;;;;;;;;;5091018;28;20154;-81
2023/01/23 14:21:59;;;;;;;17.75;9.30;;;;;;;;;;5086062;28;20088;-81
2023/01/23 14:24:27;;;;;;;17.95;9.77;;;;;;;;;;5090641;28;20028;-81
2023/01/23 14:26:59;;;;;;;15.13;8.88;;;;;;;;;;5091940;28;20023;-81
2023/01/23 14:29:26;;;;;;;16.90;8.93;;;;;;;;;;5096009;28;20035;-80
2023/01/23 14:31:52;;;;;;;15.60;8.57;;;;;;;;;;5096974;28;20028;-80
2023/01/23 14:34:24;;;;;;;17.05;8.82;;;;;;;;;;5094505;27;20462;-80
2023/01/23 14:36:52;;;;;;;17.35;8.90;;;;;;;;;;5090137;28;20166;-81
2023/01/23 14:39:20;;;;;;;18.25;9.52;;;;;;;;;;5087353;28;20042;-81
2023/01/23 14:41:47;;;;;;;17.40;9.05;;;;;;;;;;5093809;28;20570;-81
2023/01/23 14:44:38;;;;;;;16.70;8.77;;;;;;;;;;5096553;28;20107;-81
2023/01/23 14:47:04;;;;;;;14.60;8.57;;;;;;;;;;5092756;28;20193;-80
2023/01/23 14:49:34;;;;;;;16.95;9.38;;;;;;;;;;5095813;28;20099;-81
2023/01/23 14:52:02;;;;;;;15.20;8.25;;;;;;;;;;5095667;28;20172;-81
2023/01/23 14:54:29;;;;;;;16.30;8.40;;;;;;;;;;5094013;28;20110;-81
2023/01/23 14:56:55;;;;;;;17.38;8.27;;;;;;;;;;5092384;28;20023;-80
2023/01/23 14:59:41;;;;;;;15.43;8.52;;;;;;;;;;5090645;28;20104;-80
2023/01/23 15:02:30;;;;;;;15.55;8.40;;;;;;;;;;5089021;28;20432;-81
2023/01/23 15:05:12;;;;;;;13.88;7.53;;;;;;;;;;5098503;28;20487;-81
2023/01/23 15:07:55;;;;;;;15.70;8.30;;;;;;;;;;5093969;28;20023;-80
2023/01/23 15:10:39;;;;;;;12.90;7.22;;;;;;;;;;5100273;27;20084;-81
2023/01/23 15:13:10;;;;;;;16.10;7.82;;;;;;;;;;5096410;28;20022;-81
2023/01/23 15:15:37;;;;;;;14.98;7.28;;;;;;;;;;5097103;28;20379;-81
2023/01/23 15:18:15;;;;;;;14.73;6.93;;;;;;;;;;5097170;28;20019;-81
2023/01/23 15:20:40;;;;;;;15.30;7.45;;;;;;;;;;5095020;28;20028;-81